sensor_id;sensor_type;location;lat;lon;timestamp;P1;durP1;ratioP1;P2;durP2;ratioP2
51475;SDS011;37554;50.362;7.568;2022-12-26T00:01:32;2.72;;;1.70;;
51475;SDS011;37554;50.362;7.568;2022-12-26T00:03:59;1.88;;;1.70;;
51475;SDS011;37554;50.362;7.568;2022-12-26T00:06:26;2.38;;;1.50;;
51475;SDS011;37554;50.362;7.568;2022-12-26T00:08:53;1.83;;;1.55;;
51475;SDS011;37554;50.362;7.568;2022-12-26T00:11:20;2.38;;;1.30;;
51475;SDS011;37554;50.362;7.568;2022-12-26T00:13:46;1.42;;;1.23;;
51475;SDS011;37554;50.362;7.568;2022-12-26T00:16:17;2.15;;;1.50;;
51475;SDS011;37554;50.362;7.568;2022-12-26T00:18:44;1.80;;;1.50;;
51475;SDS011;37554;50.362;7.568;2022-12-26T00:21:11;1.35;;;1.25;;
51475;SDS011;37554;50.362;7.568;2022-12-26T00:23:38;3.38;;;1.70;;
51475;SDS011;37554;50.362;7.568;2022-12-26T00:26:05;2.70;;;1.58;;
51475;SDS011;37554;50.362;7.568;2022-12-26T00:28:32;1.65;;;1.40;;
51475;SDS011;37554;50.362;7.568;2022-12-26T00:30:59;1.95;;;1.70;;
51475;SDS011;37554;50.362;7.568;2022-12-26T00:33:27;2.03;;;1.50;;
51475;SDS011;37554;50.362;7.568;2022-12-26T00:35:53;2.03;;;1.40;;
51475;SDS011;37554;50.362;7.568;2022-12-26T00:38:24;1.45;;;1.35;;
51475;SDS011;37554;50.362;7.568;2022-12-26T00:40:49;1.77;;;1.35;;
51475;SDS011;37554;50.362;7.568;2022-12-26T00:43:15;2.65;;;1.40;;
51475;SDS011;37554;50.362;7.568;2022-12-26T00:45:43;1.75;;;1.40;;
51475;SDS011;37554;50.362;7.568;2022-12-26T00:48:09;1.70;;;1.42;;
51475;SDS011;37554;50.362;7.568;2022-12-26T00:50:35;1.30;;;1.20;;
51475;SDS011;37554;50.362;7.568;2022-12-26T00:53:00;2.15;;;1.45;;
51475;SDS011;37554;50.362;7.568;2022-12-26T00:55:26;2.30;;;1.48;;
51475;SDS011;37554;50.362;7.568;2022-12-26T00:57:51;1.58;;;1.30;;
51475;SDS011;37554;50.362;7.568;2022-12-26T01:00:17;2.88;;;1.52;;
51475;SDS011;37554;50.362;7.568;2022-12-26T01:02:43;3.15;;;1.60;;
51475;SDS011;37554;50.362;7.568;2022-12-26T01:05:09;1.70;;;1.42;;
51475;SDS011;37554;50.362;7.568;2022-12-26T01:07:36;1.42;;;1.33;;
51475;SDS011;37554;50.362;7.568;2022-12-26T01:10:06;1.70;;;1.40;;
51475;SDS011;37554;50.362;7.568;2022-12-26T01:12:35;1.50;;;1.38;;
51475;SDS011;37554;50.362;7.568;2022-12-26T01:15:00;2.05;;;1.80;;
51475;SDS011;37554;50.362;7.568;2022-12-26T01:17:27;2.03;;;1.23;;
51475;SDS011;37554;50.362;7.568;2022-12-26T01:19:53;2.30;;;1.50;;
51475;SDS011;37554;50.362;7.568;2022-12-26T01:22:19;1.77;;;1.23;;
51475;SDS011;37554;50.362;7.568;2022-12-26T01:24:45;1.65;;;1.38;;
51475;SDS011;37554;50.362;7.568;2022-12-26T01:27:11;1.50;;;1.40;;
51475;SDS011;37554;50.362;7.568;2022-12-26T01:29:37;2.00;;;1.58;;
51475;SDS011;37554;50.362;7.568;2022-12-26T01:32:03;1.52;;;1.35;;
51475;SDS011;37554;50.362;7.568;2022-12-26T01:34:28;1.60;;;1.40;;
51475;SDS011;37554;50.362;7.568;2022-12-26T01:36:54;2.53;;;1.40;;
51475;SDS011;37554;50.362;7.568;2022-12-26T01:39:20;1.77;;;1.20;;
51475;SDS011;37554;50.362;7.568;2022-12-26T01:41:46;2.08;;;1.35;;
51475;SDS011;37554;50.362;7.568;2022-12-26T01:47:15;2.25;;;1.23;;
51475;SDS011;37554;50.362;7.568;2022-12-26T01:49:42;2.65;;;1.67;;
51475;SDS011;37554;50.362;7.568;2022-12-26T01:52:11;2.03;;;1.50;;
51475;SDS011;37554;50.362;7.568;2022-12-26T01:54:41;1.90;;;1.33;;
51475;SDS011;37554;50.362;7.568;2022-12-26T01:57:12;1.70;;;1.33;;
51475;SDS011;37554;50.362;7.568;2022-12-26T01:59:41;1.35;;;1.20;;
51475;SDS011;37554;50.362;7.568;2022-12-26T02:02:07;2.10;;;1.60;;
51475;SDS011;37554;50.362;7.568;2022-12-26T02:04:35;2.10;;;1.65;;
51475;SDS011;37554;50.362;7.568;2022-12-26T02:07:23;1.45;;;1.30;;
51475;SDS011;37554;50.362;7.568;2022-12-26T02:09:50;2.00;;;1.30;;
51475;SDS011;37554;50.362;7.568;2022-12-26T02:12:18;1.63;;;1.20;;
51475;SDS011;37554;50.362;7.568;2022-12-26T02:14:49;2.40;;;1.33;;
51475;SDS011;37554;50.362;7.568;2022-12-26T02:17:15;2.05;;;1.30;;
51475;SDS011;37554;50.362;7.568;2022-12-26T02:25:40;1.73;;;1.23;;
51475;SDS011;37554;50.362;7.568;2022-12-26T02:31:25;1.52;;;1.10;;
51475;SDS011;37554;50.362;7.568;2022-12-26T02:37:06;1.63;;;1.00;;
51475;SDS011;37554;50.362;7.568;2022-12-26T02:42:22;2.33;;;1.30;;
51475;SDS011;37554;50.362;7.568;2022-12-26T02:48:23;1.85;;;1.30;;
51475;SDS011;37554;50.362;7.568;2022-12-26T02:57:29;2.28;;;1.40;;
51475;SDS011;37554;50.362;7.568;2022-12-26T03:00:29;1.65;;;1.17;;
51475;SDS011;37554;50.362;7.568;2022-12-26T03:03:19;2.05;;;1.25;;
51475;SDS011;37554;50.362;7.568;2022-12-26T03:06:10;1.17;;;1.08;;
51475;SDS011;37554;50.362;7.568;2022-12-26T03:12:05;2.40;;;1.00;;
51475;SDS011;37554;50.362;7.568;2022-12-26T03:15:05;1.13;;;1.00;;
51475;SDS011;37554;50.362;7.568;2022-12-26T03:20:22;2.85;;;1.40;;
51475;SDS011;37554;50.362;7.568;2022-12-26T03:22:58;1.73;;;1.23;;
51475;SDS011;37554;50.362;7.568;2022-12-26T03:28:49;1.83;;;1.15;;
51475;SDS011;37554;50.362;7.568;2022-12-26T03:31:15;2.13;;;1.17;;
51475;SDS011;37554;50.362;7.568;2022-12-26T03:33:44;1.50;;;1.25;;
51475;SDS011;37554;50.362;7.568;2022-12-26T03:39:23;1.25;;;1.08;;
51475;SDS011;37554;50.362;7.568;2022-12-26T03:52:06;2.22;;;1.15;;
51475;SDS011;37554;50.362;7.568;2022-12-26T03:58:16;1.80;;;1.10;;
51475;SDS011;37554;50.362;7.568;2022-12-26T04:01:11;1.65;;;0.93;;
51475;SDS011;37554;50.362;7.568;2022-12-26T04:04:00;2.15;;;1.23;;
51475;SDS011;37554;50.362;7.568;2022-12-26T04:06:52;1.30;;;1.15;;
51475;SDS011;37554;50.362;7.568;2022-12-26T04:09:47;3.15;;;1.20;;
51475;SDS011;37554;50.362;7.568;2022-12-26T04:12:36;2.70;;;1.10;;
51475;SDS011;37554;50.362;7.568;2022-12-26T04:15:26;2.28;;;1.10;;
51475;SDS011;37554;50.362;7.568;2022-12-26T04:18:18;1.88;;;1.10;;
51475;SDS011;37554;50.362;7.568;2022-12-26T04:21:16;1.50;;;1.00;;
51475;SDS011;37554;50.362;7.568;2022-12-26T04:24:25;1.50;;;1.02;;
51475;SDS011;37554;50.362;7.568;2022-12-26T04:27:13;1.10;;;1.00;;
51475;SDS011;37554;50.362;7.568;2022-12-26T04:30:00;1.65;;;1.20;;
51475;SDS011;37554;50.362;7.568;2022-12-26T04:32:45;3.25;;;0.90;;
51475;SDS011;37554;50.362;7.568;2022-12-26T04:35:33;1.63;;;1.00;;
51475;SDS011;37554;50.362;7.568;2022-12-26T04:38:26;1.98;;;1.00;;
51475;SDS011;37554;50.362;7.568;2022-12-26T04:41:13;2.08;;;1.13;;
51475;SDS011;37554;50.362;7.568;2022-12-26T04:44:00;2.15;;;1.00;;
51475;SDS011;37554;50.362;7.568;2022-12-26T04:46:30;2.20;;;1.20;;
51475;SDS011;37554;50.362;7.568;2022-12-26T04:48:58;2.20;;;1.02;;
51475;SDS011;37554;50.362;7.568;2022-12-26T04:51:45;1.60;;;1.17;;
51475;SDS011;37554;50.362;7.568;2022-12-26T04:54:11;1.38;;;1.00;;
51475;SDS011;37554;50.362;7.568;2022-12-26T04:56:36;2.63;;;1.20;;
51475;SDS011;37554;50.362;7.568;2022-12-26T04:59:02;1.75;;;1.10;;
51475;SDS011;37554;50.362;7.568;2022-12-26T05:01:28;1.75;;;1.23;;
51475;SDS011;37554;50.362;7.568;2022-12-26T05:04:13;1.77;;;0.82;;
51475;SDS011;37554;50.362;7.568;2022-12-26T05:06:59;1.67;;;1.00;;
51475;SDS011;37554;50.362;7.568;2022-12-26T05:09:43;1.23;;;1.13;;
51475;SDS011;37554;50.362;7.568;2022-12-26T05:12:10;2.05;;;1.23;;
51475;SDS011;37554;50.362;7.568;2022-12-26T05:14:35;2.13;;;1.10;;
51475;SDS011;37554;50.362;7.568;2022-12-26T05:17:02;2.13;;;1.00;;
51475;SDS011;37554;50.362;7.568;2022-12-26T05:19:47;1.45;;;1.02;;
51475;SDS011;37554;50.362;7.568;2022-12-26T05:22:31;1.50;;;0.98;;
51475;SDS011;37554;50.362;7.568;2022-12-26T05:25:18;1.38;;;0.90;;
51475;SDS011;37554;50.362;7.568;2022-12-26T05:28:07;2.17;;;1.27;;
51475;SDS011;37554;50.362;7.568;2022-12-26T05:30:53;2.75;;;1.30;;
51475;SDS011;37554;50.362;7.568;2022-12-26T05:33:18;1.35;;;1.10;;
51475;SDS011;37554;50.362;7.568;2022-12-26T05:36:02;1.90;;;1.10;;
51475;SDS011;37554;50.362;7.568;2022-12-26T05:38:28;2.15;;;1.30;;
51475;SDS011;37554;50.362;7.568;2022-12-26T05:40:55;1.10;;;0.95;;
51475;SDS011;37554;50.362;7.568;2022-12-26T05:43:20;1.77;;;1.13;;
51475;SDS011;37554;50.362;7.568;2022-12-26T05:45:46;1.15;;;1.05;;
51475;SDS011;37554;50.362;7.568;2022-12-26T05:48:12;1.88;;;1.05;;
51475;SDS011;37554;50.362;7.568;2022-12-26T05:50:38;1.75;;;1.02;;
51475;SDS011;37554;50.362;7.568;2022-12-26T05:53:03;3.22;;;1.00;;
51475;SDS011;37554;50.362;7.568;2022-12-26T05:55:29;1.30;;;0.70;;
51475;SDS011;37554;50.362;7.568;2022-12-26T05:57:55;1.85;;;1.25;;
51475;SDS011;37554;50.362;7.568;2022-12-26T06:00:23;3.58;;;1.20;;
51475;SDS011;37554;50.362;7.568;2022-12-26T06:02:48;1.40;;;0.90;;
51475;SDS011;37554;50.362;7.568;2022-12-26T06:05:14;1.27;;;0.95;;
51475;SDS011;37554;50.362;7.568;2022-12-26T06:07:40;1.50;;;0.90;;
51475;SDS011;37554;50.362;7.568;2022-12-26T06:10:06;1.10;;;1.00;;
51475;SDS011;37554;50.362;7.568;2022-12-26T06:12:32;2.65;;;1.20;;
51475;SDS011;37554;50.362;7.568;2022-12-26T06:14:58;1.63;;;1.08;;
51475;SDS011;37554;50.362;7.568;2022-12-26T06:17:24;2.80;;;1.20;;
51475;SDS011;37554;50.362;7.568;2022-12-26T06:19:49;1.85;;;0.98;;
51475;SDS011;37554;50.362;7.568;2022-12-26T06:22:15;1.13;;;0.93;;
51475;SDS011;37554;50.362;7.568;2022-12-26T06:24:41;1.38;;;1.00;;
51475;SDS011;37554;50.362;7.568;2022-12-26T06:27:06;3.15;;;0.95;;
51475;SDS011;37554;50.362;7.568;2022-12-26T06:29:32;1.27;;;0.85;;
51475;SDS011;37554;50.362;7.568;2022-12-26T06:31:57;2.20;;;0.93;;
51475;SDS011;37554;50.362;7.568;2022-12-26T06:34:23;1.42;;;0.80;;
51475;SDS011;37554;50.362;7.568;2022-12-26T06:36:49;2.67;;;1.00;;
51475;SDS011;37554;50.362;7.568;2022-12-26T06:39:14;1.45;;;0.80;;
51475;SDS011;37554;50.362;7.568;2022-12-26T06:41:40;2.45;;;1.10;;
51475;SDS011;37554;50.362;7.568;2022-12-26T06:44:05;2.30;;;1.17;;
51475;SDS011;37554;50.362;7.568;2022-12-26T06:46:31;2.40;;;0.88;;
51475;SDS011;37554;50.362;7.568;2022-12-26T06:48:57;1.60;;;0.75;;
51475;SDS011;37554;50.362;7.568;2022-12-26T06:51:24;2.03;;;0.90;;
51475;SDS011;37554;50.362;7.568;2022-12-26T06:53:55;2.35;;;0.90;;
51475;SDS011;37554;50.362;7.568;2022-12-26T06:56:24;1.30;;;0.80;;
51475;SDS011;37554;50.362;7.568;2022-12-26T06:58:54;1.73;;;0.90;;
51475;SDS011;37554;50.362;7.568;2022-12-26T07:01:22;1.80;;;0.90;;
51475;SDS011;37554;50.362;7.568;2022-12-26T07:03:50;1.92;;;0.90;;
51475;SDS011;37554;50.362;7.568;2022-12-26T07:08:42;1.25;;;0.70;;
51475;SDS011;37554;50.362;7.568;2022-12-26T07:11:15;0.70;;;0.63;;
51475;SDS011;37554;50.362;7.568;2022-12-26T07:13:45;2.15;;;0.80;;
51475;SDS011;37554;50.362;7.568;2022-12-26T07:16:11;0.70;;;0.60;;
51475;SDS011;37554;50.362;7.568;2022-12-26T07:18:37;1.83;;;0.85;;
51475;SDS011;37554;50.362;7.568;2022-12-26T07:21:06;0.90;;;0.52;;
51475;SDS011;37554;50.362;7.568;2022-12-26T07:23:36;0.70;;;0.50;;
51475;SDS011;37554;50.362;7.568;2022-12-26T07:26:02;1.10;;;0.60;;
51475;SDS011;37554;50.362;7.568;2022-12-26T07:28:28;1.58;;;0.60;;
51475;SDS011;37554;50.362;7.568;2022-12-26T07:30:55;1.50;;;0.50;;
51475;SDS011;37554;50.362;7.568;2022-12-26T07:33:25;1.05;;;0.60;;
51475;SDS011;37554;50.362;7.568;2022-12-26T07:35:51;0.77;;;0.63;;
51475;SDS011;37554;50.362;7.568;2022-12-26T07:38:16;1.00;;;0.50;;
51475;SDS011;37554;50.362;7.568;2022-12-26T07:40:42;0.90;;;0.50;;
51475;SDS011;37554;50.362;7.568;2022-12-26T07:43:08;1.15;;;0.52;;
51475;SDS011;37554;50.362;7.568;2022-12-26T07:45:33;0.95;;;0.60;;
51475;SDS011;37554;50.362;7.568;2022-12-26T07:47:59;0.57;;;0.40;;
51475;SDS011;37554;50.362;7.568;2022-12-26T07:50:25;1.02;;;0.60;;
51475;SDS011;37554;50.362;7.568;2022-12-26T07:52:51;0.55;;;0.32;;
51475;SDS011;37554;50.362;7.568;2022-12-26T07:55:17;0.65;;;0.40;;
51475;SDS011;37554;50.362;7.568;2022-12-26T07:57:43;0.60;;;0.47;;
51475;SDS011;37554;50.362;7.568;2022-12-26T08:00:09;0.70;;;0.50;;
51475;SDS011;37554;50.362;7.568;2022-12-26T08:02:35;0.88;;;0.50;;
51475;SDS011;37554;50.362;7.568;2022-12-26T08:05:01;0.75;;;0.50;;
51475;SDS011;37554;50.362;7.568;2022-12-26T08:07:26;1.35;;;0.40;;
51475;SDS011;37554;50.362;7.568;2022-12-26T08:09:52;1.80;;;0.38;;
51475;SDS011;37554;50.362;7.568;2022-12-26T08:12:17;0.47;;;0.30;;
51475;SDS011;37554;50.362;7.568;2022-12-26T08:14:48;0.63;;;0.47;;
51475;SDS011;37554;50.362;7.568;2022-12-26T08:17:14;1.08;;;0.40;;
51475;SDS011;37554;50.362;7.568;2022-12-26T08:19:39;1.10;;;0.30;;
51475;SDS011;37554;50.362;7.568;2022-12-26T08:22:05;0.60;;;0.40;;
51475;SDS011;37554;50.362;7.568;2022-12-26T08:24:31;0.52;;;0.28;;
51475;SDS011;37554;50.362;7.568;2022-12-26T08:26:56;0.45;;;0.30;;
51475;SDS011;37554;50.362;7.568;2022-12-26T08:29:22;1.13;;;0.50;;
51475;SDS011;37554;50.362;7.568;2022-12-26T08:31:48;0.73;;;0.40;;
51475;SDS011;37554;50.362;7.568;2022-12-26T08:34:13;0.90;;;0.57;;
51475;SDS011;37554;50.362;7.568;2022-12-26T08:36:39;1.05;;;0.70;;
51475;SDS011;37554;50.362;7.568;2022-12-26T08:39:05;1.27;;;0.63;;
51475;SDS011;37554;50.362;7.568;2022-12-26T08:41:30;1.00;;;0.70;;
51475;SDS011;37554;50.362;7.568;2022-12-26T08:43:56;0.85;;;0.70;;
51475;SDS011;37554;50.362;7.568;2022-12-26T08:46:22;1.30;;;0.63;;
51475;SDS011;37554;50.362;7.568;2022-12-26T08:48:48;1.15;;;0.70;;
51475;SDS011;37554;50.362;7.568;2022-12-26T08:51:16;1.75;;;0.60;;
51475;SDS011;37554;50.362;7.568;2022-12-26T08:53:47;1.47;;;0.70;;
51475;SDS011;37554;50.362;7.568;2022-12-26T08:56:18;0.93;;;0.73;;
51475;SDS011;37554;50.362;7.568;2022-12-26T08:58:45;1.02;;;0.68;;
51475;SDS011;37554;50.362;7.568;2022-12-26T09:01:13;0.70;;;0.60;;
51475;SDS011;37554;50.362;7.568;2022-12-26T09:03:43;1.40;;;0.57;;
51475;SDS011;37554;50.362;7.568;2022-12-26T09:06:10;0.90;;;0.70;;
51475;SDS011;37554;50.362;7.568;2022-12-26T09:08:38;0.73;;;0.60;;
51475;SDS011;37554;50.362;7.568;2022-12-26T09:11:11;0.60;;;0.55;;
51475;SDS011;37554;50.362;7.568;2022-12-26T09:13:39;1.35;;;0.68;;
51475;SDS011;37554;50.362;7.568;2022-12-26T09:18:33;0.88;;;0.73;;
51475;SDS011;37554;50.362;7.568;2022-12-26T09:21:00;0.73;;;0.50;;
51475;SDS011;37554;50.362;7.568;2022-12-26T09:23:27;2.47;;;0.70;;
51475;SDS011;37554;50.362;7.568;2022-12-26T09:25:53;1.08;;;0.80;;
51475;SDS011;37554;50.362;7.568;2022-12-26T09:28:20;1.10;;;0.70;;
51475;SDS011;37554;50.362;7.568;2022-12-26T09:30:48;2.30;;;0.95;;
51475;SDS011;37554;50.362;7.568;2022-12-26T09:33:14;1.45;;;0.70;;
51475;SDS011;37554;50.362;7.568;2022-12-26T09:35:39;0.80;;;0.68;;
51475;SDS011;37554;50.362;7.568;2022-12-26T09:38:05;1.35;;;0.70;;
51475;SDS011;37554;50.362;7.568;2022-12-26T09:40:39;1.50;;;0.80;;
51475;SDS011;37554;50.362;7.568;2022-12-26T09:43:26;1.98;;;1.08;;
51475;SDS011;37554;50.362;7.568;2022-12-26T09:46:04;1.23;;;0.90;;
51475;SDS011;37554;50.362;7.568;2022-12-26T09:48:50;1.38;;;0.88;;
51475;SDS011;37554;50.362;7.568;2022-12-26T09:51:21;1.50;;;1.05;;
51475;SDS011;37554;50.362;7.568;2022-12-26T09:53:48;1.20;;;1.05;;
51475;SDS011;37554;50.362;7.568;2022-12-26T09:56:15;1.50;;;1.02;;
51475;SDS011;37554;50.362;7.568;2022-12-26T09:58:48;1.20;;;0.90;;
51475;SDS011;37554;50.362;7.568;2022-12-26T10:01:18;1.30;;;0.95;;
51475;SDS011;37554;50.362;7.568;2022-12-26T10:03:48;1.40;;;1.10;;
51475;SDS011;37554;50.362;7.568;2022-12-26T10:06:25;2.50;;;1.10;;
51475;SDS011;37554;50.362;7.568;2022-12-26T10:14:32;2.00;;;1.05;;
51475;SDS011;37554;50.362;7.568;2022-12-26T10:17:12;2.63;;;1.00;;
51475;SDS011;37554;50.362;7.568;2022-12-26T10:25:23;1.15;;;1.05;;
51475;SDS011;37554;50.362;7.568;2022-12-26T10:27:56;1.58;;;0.95;;
51475;SDS011;37554;50.362;7.568;2022-12-26T10:30:27;1.33;;;0.80;;
51475;SDS011;37554;50.362;7.568;2022-12-26T10:32:59;1.50;;;0.88;;
51475;SDS011;37554;50.362;7.568;2022-12-26T10:35:31;1.17;;;0.77;;
51475;SDS011;37554;50.362;7.568;2022-12-26T10:38:19;1.25;;;0.60;;
51475;SDS011;37554;50.362;7.568;2022-12-26T10:40:59;1.42;;;0.60;;
51475;SDS011;37554;50.362;7.568;2022-12-26T10:43:33;1.55;;;0.80;;
51475;SDS011;37554;50.362;7.568;2022-12-26T10:48:41;1.05;;;0.70;;
51475;SDS011;37554;50.362;7.568;2022-12-26T10:51:07;1.50;;;0.80;;
51475;SDS011;37554;50.362;7.568;2022-12-26T10:53:34;1.58;;;0.77;;
51475;SDS011;37554;50.362;7.568;2022-12-26T10:56:07;1.95;;;0.75;;
51475;SDS011;37554;50.362;7.568;2022-12-26T10:58:35;2.17;;;1.00;;
51475;SDS011;37554;50.362;7.568;2022-12-26T11:03:53;2.22;;;0.93;;
51475;SDS011;37554;50.362;7.568;2022-12-26T11:06:20;1.30;;;0.77;;
51475;SDS011;37554;50.362;7.568;2022-12-26T11:08:49;1.27;;;0.80;;
51475;SDS011;37554;50.362;7.568;2022-12-26T11:11:22;1.05;;;0.75;;
51475;SDS011;37554;50.362;7.568;2022-12-26T11:13:59;1.15;;;0.70;;
51475;SDS011;37554;50.362;7.568;2022-12-26T11:16:31;1.17;;;0.75;;
51475;SDS011;37554;50.362;7.568;2022-12-26T11:18:59;1.67;;;0.90;;
51475;SDS011;37554;50.362;7.568;2022-12-26T11:21:26;1.65;;;0.98;;
51475;SDS011;37554;50.362;7.568;2022-12-26T11:26:34;2.15;;;1.10;;
51475;SDS011;37554;50.362;7.568;2022-12-26T11:34:25;1.88;;;0.85;;
51475;SDS011;37554;50.362;7.568;2022-12-26T11:37:01;1.77;;;0.95;;
51475;SDS011;37554;50.362;7.568;2022-12-26T11:39:37;1.35;;;0.80;;
51475;SDS011;37554;50.362;7.568;2022-12-26T11:42:09;2.03;;;1.00;;
51475;SDS011;37554;50.362;7.568;2022-12-26T11:44:38;1.73;;;0.85;;
51475;SDS011;37554;50.362;7.568;2022-12-26T11:49:37;2.35;;;0.90;;
51475;SDS011;37554;50.362;7.568;2022-12-26T12:00:38;1.25;;;0.75;;
51475;SDS011;37554;50.362;7.568;2022-12-26T12:03:09;2.08;;;1.00;;
51475;SDS011;37554;50.362;7.568;2022-12-26T12:16:42;1.65;;;0.80;;
51475;SDS011;37554;50.362;7.568;2022-12-26T12:25:33;0.95;;;0.70;;
51475;SDS011;37554;50.362;7.568;2022-12-26T12:28:17;1.42;;;0.90;;
51475;SDS011;37554;50.362;7.568;2022-12-26T12:31:02;1.20;;;0.75;;
51475;SDS011;37554;50.362;7.568;2022-12-26T12:33:50;1.40;;;0.80;;
51475;SDS011;37554;50.362;7.568;2022-12-26T12:39:24;1.88;;;1.10;;
51475;SDS011;37554;50.362;7.568;2022-12-26T12:45:00;2.17;;;1.05;;
51475;SDS011;37554;50.362;7.568;2022-12-26T12:55:59;1.92;;;0.93;;
51475;SDS011;37554;50.362;7.568;2022-12-26T12:59:55;1.48;;;1.15;;
51475;SDS011;37554;50.362;7.568;2022-12-26T13:01:47;2.10;;;1.00;;
51475;SDS011;37554;50.362;7.568;2022-12-26T13:04:23;2.13;;;1.10;;
51475;SDS011;37554;50.362;7.568;2022-12-26T13:07:03;2.00;;;1.10;;
51475;SDS011;37554;50.362;7.568;2022-12-26T13:09:35;1.52;;;0.65;;
51475;SDS011;37554;50.362;7.568;2022-12-26T13:12:07;1.80;;;0.73;;
51475;SDS011;37554;50.362;7.568;2022-12-26T13:17:14;1.17;;;0.85;;
51475;SDS011;37554;50.362;7.568;2022-12-26T13:22:44;1.83;;;0.93;;
51475;SDS011;37554;50.362;7.568;2022-12-26T13:25:43;1.23;;;0.95;;
51475;SDS011;37554;50.362;7.568;2022-12-26T13:28:16;2.28;;;0.90;;
51475;SDS011;37554;50.362;7.568;2022-12-26T13:30:52;1.67;;;0.82;;
51475;SDS011;37554;50.362;7.568;2022-12-26T13:33:19;1.95;;;0.90;;
51475;SDS011;37554;50.362;7.568;2022-12-26T13:35:55;1.23;;;0.88;;
51475;SDS011;37554;50.362;7.568;2022-12-26T13:41:23;1.80;;;0.98;;
51475;SDS011;37554;50.362;7.568;2022-12-26T13:54:34;1.35;;;0.82;;
51475;SDS011;37554;50.362;7.568;2022-12-26T14:10:35;1.33;;;0.70;;
51475;SDS011;37554;50.362;7.568;2022-12-26T14:13:17;0.93;;;0.50;;
51475;SDS011;37554;50.362;7.568;2022-12-26T14:16:18;1.92;;;0.70;;
51475;SDS011;37554;50.362;7.568;2022-12-26T14:32:52;2.47;;;0.63;;
51475;SDS011;37554;50.362;7.568;2022-12-26T14:35:32;1.00;;;0.40;;
51475;SDS011;37554;50.362;7.568;2022-12-26T14:38:36;1.02;;;0.40;;
51475;SDS011;37554;50.362;7.568;2022-12-26T14:41:22;1.38;;;0.60;;
51475;SDS011;37554;50.362;7.568;2022-12-26T14:44:11;1.15;;;0.40;;
51475;SDS011;37554;50.362;7.568;2022-12-26T14:46:56;1.50;;;0.60;;
51475;SDS011;37554;50.362;7.568;2022-12-26T14:54:49;0.77;;;0.30;;
51475;SDS011;37554;50.362;7.568;2022-12-26T15:05:26;0.45;;;0.20;;
51475;SDS011;37554;50.362;7.568;2022-12-26T15:08:03;0.82;;;0.50;;
51475;SDS011;37554;50.362;7.568;2022-12-26T15:33:48;0.90;;;0.47;;
51475;SDS011;37554;50.362;7.568;2022-12-26T15:56:30;1.73;;;0.70;;
51475;SDS011;37554;50.362;7.568;2022-12-26T15:59:11;1.30;;;0.55;;
51475;SDS011;37554;50.362;7.568;2022-12-26T16:01:54;1.30;;;0.50;;
51475;SDS011;37554;50.362;7.568;2022-12-26T16:04:21;0.82;;;0.60;;
51475;SDS011;37554;50.362;7.568;2022-12-26T16:07:18;1.10;;;0.60;;
51475;SDS011;37554;50.362;7.568;2022-12-26T16:09:49;1.55;;;0.70;;
51475;SDS011;37554;50.362;7.568;2022-12-26T16:12:29;1.50;;;0.77;;
51475;SDS011;37554;50.362;7.568;2022-12-26T16:17:35;0.70;;;0.60;;
51475;SDS011;37554;50.362;7.568;2022-12-26T16:20:16;2.30;;;0.65;;
51475;SDS011;37554;50.362;7.568;2022-12-26T16:23:15;0.80;;;0.50;;
51475;SDS011;37554;50.362;7.568;2022-12-26T16:25:46;1.75;;;0.52;;
51475;SDS011;37554;50.362;7.568;2022-12-26T16:28:14;0.75;;;0.50;;
51475;SDS011;37554;50.362;7.568;2022-12-26T16:30:43;0.60;;;0.50;;
51475;SDS011;37554;50.362;7.568;2022-12-26T16:33:10;0.50;;;0.40;;
51475;SDS011;37554;50.362;7.568;2022-12-26T16:35:38;2.53;;;0.50;;
51475;SDS011;37554;50.362;7.568;2022-12-26T16:38:06;1.02;;;0.50;;
51475;SDS011;37554;50.362;7.568;2022-12-26T16:40:44;0.50;;;0.30;;
51475;SDS011;37554;50.362;7.568;2022-12-26T16:45:43;0.70;;;0.50;;
51475;SDS011;37554;50.362;7.568;2022-12-26T16:48:12;0.80;;;0.40;;
51475;SDS011;37554;50.362;7.568;2022-12-26T16:50:48;0.80;;;0.40;;
51475;SDS011;37554;50.362;7.568;2022-12-26T16:53:19;0.45;;;0.35;;
51475;SDS011;37554;50.362;7.568;2022-12-26T17:00:46;0.45;;;0.30;;
51475;SDS011;37554;50.362;7.568;2022-12-26T17:04:19;0.55;;;0.30;;
51475;SDS011;37554;50.362;7.568;2022-12-26T17:06:31;0.73;;;0.20;;
51475;SDS011;37554;50.362;7.568;2022-12-26T17:09:04;1.40;;;1.27;;
51475;SDS011;37554;50.362;7.568;2022-12-26T17:11:35;2.67;;;2.45;;
51475;SDS011;37554;50.362;7.568;2022-12-26T17:14:05;5.18;;;4.68;;
51475;SDS011;37554;50.362;7.568;2022-12-26T17:16:40;3.83;;;3.50;;
51475;SDS011;37554;50.362;7.568;2022-12-26T17:19:16;3.53;;;3.22;;
51475;SDS011;37554;50.362;7.568;2022-12-26T17:22:30;3.70;;;3.40;;
51475;SDS011;37554;50.362;7.568;2022-12-26T17:24:39;3.53;;;3.10;;
51475;SDS011;37554;50.362;7.568;2022-12-26T17:27:07;3.15;;;2.63;;
51475;SDS011;37554;50.362;7.568;2022-12-26T17:29:46;2.90;;;2.60;;
51475;SDS011;37554;50.362;7.568;2022-12-26T17:32:25;2.45;;;1.98;;
51475;SDS011;37554;50.362;7.568;2022-12-26T17:34:58;2.50;;;2.05;;
51475;SDS011;37554;50.362;7.568;2022-12-26T17:37:25;2.17;;;1.92;;
51475;SDS011;37554;50.362;7.568;2022-12-26T17:42:51;2.13;;;1.60;;
51475;SDS011;37554;50.362;7.568;2022-12-26T17:45:28;1.92;;;1.58;;
51475;SDS011;37554;50.362;7.568;2022-12-26T17:47:55;1.65;;;1.30;;
51475;SDS011;37554;50.362;7.568;2022-12-26T17:50:22;1.95;;;1.48;;
51475;SDS011;37554;50.362;7.568;2022-12-26T17:52:54;1.50;;;1.30;;
51475;SDS011;37554;50.362;7.568;2022-12-26T17:55:45;3.22;;;1.38;;
51475;SDS011;37554;50.362;7.568;2022-12-26T17:58:11;3.15;;;1.08;;
51475;SDS011;37554;50.362;7.568;2022-12-26T18:00:38;1.40;;;1.05;;
51475;SDS011;37554;50.362;7.568;2022-12-26T18:03:04;3.60;;;1.10;;
51475;SDS011;37554;50.362;7.568;2022-12-26T18:05:30;2.03;;;1.30;;
51475;SDS011;37554;50.362;7.568;2022-12-26T18:07:57;1.33;;;0.93;;
51475;SDS011;37554;50.362;7.568;2022-12-26T18:10:24;1.13;;;0.95;;
51475;SDS011;37554;50.362;7.568;2022-12-26T18:12:53;2.17;;;1.25;;
51475;SDS011;37554;50.362;7.568;2022-12-26T18:15:19;3.58;;;2.88;;
51475;SDS011;37554;50.362;7.568;2022-12-26T18:17:46;2.42;;;2.22;;
51475;SDS011;37554;50.362;7.568;2022-12-26T18:20:16;1.77;;;1.50;;
51475;SDS011;37554;50.362;7.568;2022-12-26T18:22:44;2.42;;;1.65;;
51475;SDS011;37554;50.362;7.568;2022-12-26T18:25:12;1.50;;;1.30;;
51475;SDS011;37554;50.362;7.568;2022-12-26T18:27:42;1.70;;;1.38;;
51475;SDS011;37554;50.362;7.568;2022-12-26T18:30:13;2.47;;;1.25;;
51475;SDS011;37554;50.362;7.568;2022-12-26T18:32:45;3.08;;;1.50;;
51475;SDS011;37554;50.362;7.568;2022-12-26T18:35:12;1.30;;;1.20;;
51475;SDS011;37554;50.362;7.568;2022-12-26T18:37:38;2.55;;;1.25;;
51475;SDS011;37554;50.362;7.568;2022-12-26T18:40:09;4.38;;;1.48;;
51475;SDS011;37554;50.362;7.568;2022-12-26T18:42:42;1.45;;;1.20;;
51475;SDS011;37554;50.362;7.568;2022-12-26T18:45:08;1.70;;;1.02;;
51475;SDS011;37554;50.362;7.568;2022-12-26T18:47:33;1.50;;;1.00;;
51475;SDS011;37554;50.362;7.568;2022-12-26T18:49:59;1.40;;;0.90;;
51475;SDS011;37554;50.362;7.568;2022-12-26T18:52:25;1.42;;;1.00;;
51475;SDS011;37554;50.362;7.568;2022-12-26T18:54:50;1.50;;;0.90;;
51475;SDS011;37554;50.362;7.568;2022-12-26T18:57:18;2.10;;;1.20;;
51475;SDS011;37554;50.362;7.568;2022-12-26T18:59:44;2.65;;;1.10;;
51475;SDS011;37554;50.362;7.568;2022-12-26T19:02:14;2.42;;;1.17;;
51475;SDS011;37554;50.362;7.568;2022-12-26T19:04:41;1.58;;;1.00;;
51475;SDS011;37554;50.362;7.568;2022-12-26T19:07:07;2.08;;;0.98;;
51475;SDS011;37554;50.362;7.568;2022-12-26T19:09:35;2.17;;;1.15;;
51475;SDS011;37554;50.362;7.568;2022-12-26T19:12:01;1.77;;;0.93;;
51475;SDS011;37554;50.362;7.568;2022-12-26T19:14:26;1.40;;;0.90;;
51475;SDS011;37554;50.362;7.568;2022-12-26T19:16:52;1.55;;;0.93;;
51475;SDS011;37554;50.362;7.568;2022-12-26T19:19:18;1.40;;;0.80;;